sensor_id;sensor_type;location;lat;lon;timestamp;temperature;humidity
21193;DHT22;10754;51.106;7.164;2023-02-08T00:01:08;5.20;1.00
21193;DHT22;10754;51.106;7.164;2023-02-08T00:03:34;5.20;1.00
21193;DHT22;10754;51.106;7.164;2023-02-08T00:06:00;5.10;1.00
21193;DHT22;10754;51.106;7.164;2023-02-08T00:08:25;5.10;1.00
21193;DHT22;10754;51.106;7.164;2023-02-08T00:10:51;5.10;1.00
21193;DHT22;10754;51.106;7.164;2023-02-08T00:13:16;5.10;1.00
21193;DHT22;10754;51.106;7.164;2023-02-08T00:15:44;5.20;1.00
21193;DHT22;10754;51.106;7.164;2023-02-08T00:18:10;5.20;1.00
21193;DHT22;10754;51.106;7.164;2023-02-08T00:20:40;5.20;1.00
21193;DHT22;10754;51.106;7.164;2023-02-08T00:23:06;5.20;1.00
21193;DHT22;10754;51.106;7.164;2023-02-08T00:25:32;5.20;1.00
21193;DHT22;10754;51.106;7.164;2023-02-08T00:27:57;5.20;1.00
21193;DHT22;10754;51.106;7.164;2023-02-08T00:30:23;5.10;1.00
21193;DHT22;10754;51.106;7.164;2023-02-08T00:32:48;5.10;1.00
21193;DHT22;10754;51.106;7.164;2023-02-08T00:35:14;5.20;1.00
21193;DHT22;10754;51.106;7.164;2023-02-08T00:37:40;5.10;1.00
21193;DHT22;10754;51.106;7.164;2023-02-08T00:40:06;5.00;1.00
21193;DHT22;10754;51.106;7.164;2023-02-08T00:42:31;5.00;1.00
21193;DHT22;10754;51.106;7.164;2023-02-08T00:44:57;5.10;1.00
21193;DHT22;10754;51.106;7.164;2023-02-08T00:47:23;5.00;1.00
21193;DHT22;10754;51.106;7.164;2023-02-08T00:49:49;5.00;1.00
21193;DHT22;10754;51.106;7.164;2023-02-08T00:52:15;5.00;1.00
21193;DHT22;10754;51.106;7.164;2023-02-08T00:54:40;5.10;1.00
21193;DHT22;10754;51.106;7.164;2023-02-08T00:57:07;5.00;1.00
21193;DHT22;10754;51.106;7.164;2023-02-08T00:59:33;5.00;1.00
21193;DHT22;10754;51.106;7.164;2023-02-08T01:01:58;5.00;1.00
21193;DHT22;10754;51.106;7.164;2023-02-08T01:04:24;5.00;1.00
21193;DHT22;10754;51.106;7.164;2023-02-08T01:06:49;5.00;1.00
21193;DHT22;10754;51.106;7.164;2023-02-08T01:09:15;5.00;1.00
21193;DHT22;10754;51.106;7.164;2023-02-08T01:11:40;5.10;1.00
21193;DHT22;10754;51.106;7.164;2023-02-08T01:14:06;5.00;1.00
21193;DHT22;10754;51.106;7.164;2023-02-08T01:16:32;5.00;1.00
21193;DHT22;10754;51.106;7.164;2023-02-08T01:18:59;5.10;1.00
21193;DHT22;10754;51.106;7.164;2023-02-08T01:21:30;5.10;1.00
21193;DHT22;10754;51.106;7.164;2023-02-08T01:23:56;5.10;1.00
21193;DHT22;10754;51.106;7.164;2023-02-08T01:26:23;5.10;1.00
21193;DHT22;10754;51.106;7.164;2023-02-08T01:28:49;5.10;1.00
21193;DHT22;10754;51.106;7.164;2023-02-08T01:31:18;5.00;1.00
21193;DHT22;10754;51.106;7.164;2023-02-08T01:33:44;5.10;1.00
21193;DHT22;10754;51.106;7.164;2023-02-08T01:36:10;5.10;1.00
21193;DHT22;10754;51.106;7.164;2023-02-08T01:38:36;5.00;1.00
21193;DHT22;10754;51.106;7.164;2023-02-08T01:41:03;5.10;1.00
21193;DHT22;10754;51.106;7.164;2023-02-08T01:43:32;5.10;1.00
21193;DHT22;10754;51.106;7.164;2023-02-08T01:45:58;5.10;1.00
21193;DHT22;10754;51.106;7.164;2023-02-08T01:48:32;5.10;1.00
21193;DHT22;10754;51.106;7.164;2023-02-08T01:51:14;5.10;1.00
21193;DHT22;10754;51.106;7.164;2023-02-08T01:53:41;5.20;1.00
21193;DHT22;10754;51.106;7.164;2023-02-08T01:56:12;5.10;1.00
21193;DHT22;10754;51.106;7.164;2023-02-08T01:58:43;5.10;1.00
21193;DHT22;10754;51.106;7.164;2023-02-08T02:01:10;5.00;1.00
21193;DHT22;10754;51.106;7.164;2023-02-08T02:03:36;5.00;1.00
21193;DHT22;10754;51.106;7.164;2023-02-08T02:06:12;5.00;1.00
21193;DHT22;10754;51.106;7.164;2023-02-08T02:11:24;5.00;1.00
21193;DHT22;10754;51.106;7.164;2023-02-08T02:13:51;5.00;1.00
21193;DHT22;10754;51.106;7.164;2023-02-08T02:16:17;5.00;1.00
21193;DHT22;10754;51.106;7.164;2023-02-08T02:18:42;5.00;1.00
21193;DHT22;10754;51.106;7.164;2023-02-08T02:21:28;5.00;1.00
21193;DHT22;10754;51.106;7.164;2023-02-08T02:24:36;5.00;1.00
21193;DHT22;10754;51.106;7.164;2023-02-08T02:33:12;5.00;1.00
21193;DHT22;10754;51.106;7.164;2023-02-08T02:36:27;5.00;1.00
21193;DHT22;10754;51.106;7.164;2023-02-08T02:39:04;5.00;1.00
21193;DHT22;10754;51.106;7.164;2023-02-08T02:44:41;5.00;1.00
21193;DHT22;10754;51.106;7.164;2023-02-08T02:47:35;4.90;1.00
21193;DHT22;10754;51.106;7.164;2023-02-08T02:52:47;4.80;1.00
21193;DHT22;10754;51.106;7.164;2023-02-08T02:55:17;4.80;1.00
21193;DHT22;10754;51.106;7.164;2023-02-08T02:57:46;4.90;1.00
21193;DHT22;10754;51.106;7.164;2023-02-08T03:00:20;4.80;1.00
21193;DHT22;10754;51.106;7.164;2023-02-08T03:02:47;4.80;1.00
21193;DHT22;10754;51.106;7.164;2023-02-08T03:05:12;4.80;1.00
21193;DHT22;10754;51.106;7.164;2023-02-08T03:10:49;4.90;1.00
21193;DHT22;10754;51.106;7.164;2023-02-08T03:16:21;4.90;1.00
21193;DHT22;10754;51.106;7.164;2023-02-08T03:21:40;4.90;1.00
21193;DHT22;10754;51.106;7.164;2023-02-08T03:24:54;4.90;1.00
21193;DHT22;10754;51.106;7.164;2023-02-08T03:30:24;4.80;1.00
21193;DHT22;10754;51.106;7.164;2023-02-08T03:33:02;4.90;1.00
21193;DHT22;10754;51.106;7.164;2023-02-08T03:37:59;4.80;1.00
21193;DHT22;10754;51.106;7.164;2023-02-08T03:40:36;4.80;1.00
21193;DHT22;10754;51.106;7.164;2023-02-08T03:43:09;4.80;1.00
21193;DHT22;10754;51.106;7.164;2023-02-08T03:45:46;4.80;1.00
21193;DHT22;10754;51.106;7.164;2023-02-08T03:48:13;4.80;1.00
21193;DHT22;10754;51.106;7.164;2023-02-08T03:50:45;4.80;1.00
21193;DHT22;10754;51.106;7.164;2023-02-08T03:53:14;4.80;1.00
21193;DHT22;10754;51.106;7.164;2023-02-08T03:55:44;4.80;1.00
21193;DHT22;10754;51.106;7.164;2023-02-08T03:58:31;4.80;1.00
21193;DHT22;10754;51.106;7.164;2023-02-08T04:01:04;4.70;1.00
21193;DHT22;10754;51.106;7.164;2023-02-08T04:03:34;4.60;1.00
21193;DHT22;10754;51.106;7.164;2023-02-08T04:05:59;4.50;1.00
21193;DHT22;10754;51.106;7.164;2023-02-08T04:08:25;4.30;1.00
21193;DHT22;10754;51.106;7.164;2023-02-08T04:10:51;4.30;1.00
21193;DHT22;10754;51.106;7.164;2023-02-08T04:13:16;4.30;1.00
21193;DHT22;10754;51.106;7.164;2023-02-08T04:15:42;4.30;1.00
21193;DHT22;10754;51.106;7.164;2023-02-08T04:18:08;4.30;1.00
21193;DHT22;10754;51.106;7.164;2023-02-08T04:20:34;4.20;1.00
21193;DHT22;10754;51.106;7.164;2023-02-08T04:22:59;4.20;1.00
21193;DHT22;10754;51.106;7.164;2023-02-08T04:25:25;4.20;1.00
21193;DHT22;10754;51.106;7.164;2023-02-08T04:27:51;4.30;1.00
21193;DHT22;10754;51.106;7.164;2023-02-08T04:30:16;4.60;1.00
21193;DHT22;10754;51.106;7.164;2023-02-08T04:32:42;4.40;1.00
21193;DHT22;10754;51.106;7.164;2023-02-08T04:35:07;4.30;1.00
21193;DHT22;10754;51.106;7.164;2023-02-08T04:37:33;4.30;1.00
21193;DHT22;10754;51.106;7.164;2023-02-08T04:39:59;4.10;1.00
21193;DHT22;10754;51.106;7.164;2023-02-08T04:42:24;4.00;1.00
21193;DHT22;10754;51.106;7.164;2023-02-08T04:44:50;3.90;1.00
21193;DHT22;10754;51.106;7.164;2023-02-08T04:47:16;3.90;1.00
21193;DHT22;10754;51.106;7.164;2023-02-08T04:49:41;4.10;1.00
21193;DHT22;10754;51.106;7.164;2023-02-08T04:52:07;4.00;1.00
21193;DHT22;10754;51.106;7.164;2023-02-08T04:54:33;4.00;1.00
21193;DHT22;10754;51.106;7.164;2023-02-08T04:56:58;4.20;1.00
21193;DHT22;10754;51.106;7.164;2023-02-08T04:59:24;4.20;1.00
21193;DHT22;10754;51.106;7.164;2023-02-08T05:01:49;4.20;1.00
21193;DHT22;10754;51.106;7.164;2023-02-08T05:04:15;4.20;1.00
21193;DHT22;10754;51.106;7.164;2023-02-08T05:06:40;4.30;1.00
21193;DHT22;10754;51.106;7.164;2023-02-08T05:09:08;4.40;1.00
21193;DHT22;10754;51.106;7.164;2023-02-08T05:11:34;4.50;1.00
21193;DHT22;10754;51.106;7.164;2023-02-08T05:14:00;4.40;1.00
21193;DHT22;10754;51.106;7.164;2023-02-08T05:16:26;4.40;1.00
21193;DHT22;10754;51.106;7.164;2023-02-08T05:18:51;4.40;1.00
21193;DHT22;10754;51.106;7.164;2023-02-08T05:21:17;4.40;1.00
21193;DHT22;10754;51.106;7.164;2023-02-08T05:23:42;4.30;1.00
21193;DHT22;10754;51.106;7.164;2023-02-08T05:26:09;4.40;1.00
21193;DHT22;10754;51.106;7.164;2023-02-08T05:28:35;4.40;1.00
21193;DHT22;10754;51.106;7.164;2023-02-08T05:31:17;4.40;1.00
21193;DHT22;10754;51.106;7.164;2023-02-08T05:33:43;4.40;1.00
21193;DHT22;10754;51.106;7.164;2023-02-08T05:36:09;4.30;1.00
21193;DHT22;10754;51.106;7.164;2023-02-08T05:38:35;4.40;1.00
21193;DHT22;10754;51.106;7.164;2023-02-08T05:41:00;4.40;1.00
21193;DHT22;10754;51.106;7.164;2023-02-08T05:43:26;4.50;1.00
21193;DHT22;10754;51.106;7.164;2023-02-08T05:45:51;4.40;1.00
21193;DHT22;10754;51.106;7.164;2023-02-08T05:48:17;4.30;1.00
21193;DHT22;10754;51.106;7.164;2023-02-08T05:50:43;4.40;1.00
21193;DHT22;10754;51.106;7.164;2023-02-08T05:53:09;4.40;1.00
21193;DHT22;10754;51.106;7.164;2023-02-08T05:55:35;4.30;1.00
21193;DHT22;10754;51.106;7.164;2023-02-08T05:58:00;4.20;1.00
21193;DHT22;10754;51.106;7.164;2023-02-08T06:00:26;4.10;1.00
21193;DHT22;10754;51.106;7.164;2023-02-08T06:02:51;4.20;1.00
21193;DHT22;10754;51.106;7.164;2023-02-08T06:05:17;4.30;1.00
21193;DHT22;10754;51.106;7.164;2023-02-08T06:07:43;4.40;1.00
21193;DHT22;10754;51.106;7.164;2023-02-08T06:10:08;4.20;1.00
21193;DHT22;10754;51.106;7.164;2023-02-08T06:12:34;4.30;1.00
21193;DHT22;10754;51.106;7.164;2023-02-08T06:15:00;4.30;1.00
21193;DHT22;10754;51.106;7.164;2023-02-08T06:17:26;4.20;1.00
21193;DHT22;10754;51.106;7.164;2023-02-08T06:19:51;4.30;1.00
21193;DHT22;10754;51.106;7.164;2023-02-08T06:22:17;4.30;1.00
21193;DHT22;10754;51.106;7.164;2023-02-08T06:24:42;4.20;1.00
21193;DHT22;10754;51.106;7.164;2023-02-08T06:27:08;4.20;1.00
21193;DHT22;10754;51.106;7.164;2023-02-08T06:29:33;4.20;1.00
21193;DHT22;10754;51.106;7.164;2023-02-08T06:31:59;4.30;1.00
21193;DHT22;10754;51.106;7.164;2023-02-08T06:34:24;4.30;1.00
21193;DHT22;10754;51.106;7.164;2023-02-08T06:36:50;4.20;1.00
21193;DHT22;10754;51.106;7.164;2023-02-08T06:39:15;4.30;1.00
21193;DHT22;10754;51.106;7.164;2023-02-08T06:41:41;4.30;1.00
21193;DHT22;10754;51.106;7.164;2023-02-08T06:44:06;4.20;1.00
21193;DHT22;10754;51.106;7.164;2023-02-08T06:46:32;4.20;1.00
21193;DHT22;10754;51.106;7.164;2023-02-08T06:48:57;4.20;1.00
21193;DHT22;10754;51.106;7.164;2023-02-08T06:51:25;4.20;1.00
21193;DHT22;10754;51.106;7.164;2023-02-08T06:53:50;4.40;1.00
21193;DHT22;10754;51.106;7.164;2023-02-08T06:56:16;4.40;1.00
21193;DHT22;10754;51.106;7.164;2023-02-08T06:58:42;4.40;1.00
21193;DHT22;10754;51.106;7.164;2023-02-08T07:01:12;4.40;1.00
21193;DHT22;10754;51.106;7.164;2023-02-08T07:03:37;4.40;1.00
21193;DHT22;10754;51.106;7.164;2023-02-08T07:06:03;4.40;1.00
21193;DHT22;10754;51.106;7.164;2023-02-08T07:08:29;4.30;1.00
21193;DHT22;10754;51.106;7.164;2023-02-08T07:10:54;4.40;1.00
21193;DHT22;10754;51.106;7.164;2023-02-08T07:13:19;4.40;1.00
21193;DHT22;10754;51.106;7.164;2023-02-08T07:15:45;4.50;1.00
21193;DHT22;10754;51.106;7.164;2023-02-08T07:18:10;4.40;1.00
21193;DHT22;10754;51.106;7.164;2023-02-08T07:20:36;4.40;1.00
21193;DHT22;10754;51.106;7.164;2023-02-08T07:23:01;4.30;1.00
21193;DHT22;10754;51.106;7.164;2023-02-08T07:25:27;4.30;1.00
21193;DHT22;10754;51.106;7.164;2023-02-08T07:27:52;4.30;1.00
21193;DHT22;10754;51.106;7.164;2023-02-08T07:30:18;4.30;1.00
21193;DHT22;10754;51.106;7.164;2023-02-08T07:32:43;4.40;1.00
21193;DHT22;10754;51.106;7.164;2023-02-08T07:35:09;4.40;1.00
21193;DHT22;10754;51.106;7.164;2023-02-08T07:37:35;4.40;1.00
21193;DHT22;10754;51.106;7.164;2023-02-08T07:40:00;4.40;1.00
21193;DHT22;10754;51.106;7.164;2023-02-08T07:42:25;4.40;1.00
21193;DHT22;10754;51.106;7.164;2023-02-08T07:44:51;4.40;1.00
21193;DHT22;10754;51.106;7.164;2023-02-08T07:47:17;4.50;1.00
21193;DHT22;10754;51.106;7.164;2023-02-08T07:49:42;4.50;1.00
21193;DHT22;10754;51.106;7.164;2023-02-08T07:52:07;4.50;1.00
21193;DHT22;10754;51.106;7.164;2023-02-08T07:54:33;4.60;1.00
21193;DHT22;10754;51.106;7.164;2023-02-08T07:56:59;4.70;1.00
21193;DHT22;10754;51.106;7.164;2023-02-08T07:59:24;4.70;1.00
21193;DHT22;10754;51.106;7.164;2023-02-08T08:01:50;4.80;1.00
21193;DHT22;10754;51.106;7.164;2023-02-08T08:04:15;4.90;1.00
21193;DHT22;10754;51.106;7.164;2023-02-08T08:06:41;5.00;1.00
21193;DHT22;10754;51.106;7.164;2023-02-08T08:09:06;5.00;1.00
21193;DHT22;10754;51.106;7.164;2023-02-08T08:11:32;4.90;1.00
21193;DHT22;10754;51.106;7.164;2023-02-08T08:13:57;5.00;1.00
21193;DHT22;10754;51.106;7.164;2023-02-08T08:16:23;5.00;1.00
21193;DHT22;10754;51.106;7.164;2023-02-08T08:18:48;4.80;1.00
21193;DHT22;10754;51.106;7.164;2023-02-08T08:21:15;4.70;1.00
21193;DHT22;10754;51.106;7.164;2023-02-08T08:23:41;4.80;1.00
21193;DHT22;10754;51.106;7.164;2023-02-08T08:26:12;4.80;1.00
21193;DHT22;10754;51.106;7.164;2023-02-08T08:28:39;4.80;1.00
21193;DHT22;10754;51.106;7.164;2023-02-08T08:31:13;4.90;1.00
21193;DHT22;10754;51.106;7.164;2023-02-08T08:33:39;5.00;1.00
21193;DHT22;10754;51.106;7.164;2023-02-08T08:36:05;5.00;1.00
21193;DHT22;10754;51.106;7.164;2023-02-08T08:38:31;5.00;1.00
21193;DHT22;10754;51.106;7.164;2023-02-08T08:40:56;5.10;1.00
21193;DHT22;10754;51.106;7.164;2023-02-08T08:43:22;5.20;1.00
21193;DHT22;10754;51.106;7.164;2023-02-08T08:45:47;5.20;1.00
21193;DHT22;10754;51.106;7.164;2023-02-08T08:48:13;4.90;1.00
21193;DHT22;10754;51.106;7.164;2023-02-08T08:50:38;5.10;1.00
21193;DHT22;10754;51.106;7.164;2023-02-08T08:53:04;5.20;1.00
21193;DHT22;10754;51.106;7.164;2023-02-08T08:55:30;5.40;1.00
21193;DHT22;10754;51.106;7.164;2023-02-08T08:57:55;5.40;1.00
21193;DHT22;10754;51.106;7.164;2023-02-08T09:00:21;5.40;1.00
21193;DHT22;10754;51.106;7.164;2023-02-08T09:02:47;5.50;1.00
21193;DHT22;10754;51.106;7.164;2023-02-08T09:05:12;5.70;1.00
21193;DHT22;10754;51.106;7.164;2023-02-08T09:07:38;5.80;1.00
21193;DHT22;10754;51.106;7.164;2023-02-08T09:10:03;5.90;1.00
21193;DHT22;10754;51.106;7.164;2023-02-08T09:12:29;6.10;1.00
21193;DHT22;10754;51.106;7.164;2023-02-08T09:14:55;6.30;1.00
21193;DHT22;10754;51.106;7.164;2023-02-08T09:17:20;6.30;1.00
21193;DHT22;10754;51.106;7.164;2023-02-08T09:19:46;6.40;1.00
21193;DHT22;10754;51.106;7.164;2023-02-08T09:22:12;6.30;1.00
21193;DHT22;10754;51.106;7.164;2023-02-08T09:24:38;6.30;1.00
21193;DHT22;10754;51.106;7.164;2023-02-08T09:27:04;6.30;1.00
21193;DHT22;10754;51.106;7.164;2023-02-08T09:29:30;6.50;1.00
21193;DHT22;10754;51.106;7.164;2023-02-08T09:31:57;6.50;1.00
21193;DHT22;10754;51.106;7.164;2023-02-08T09:34:22;6.60;1.00
21193;DHT22;10754;51.106;7.164;2023-02-08T09:36:48;6.60;1.00
21193;DHT22;10754;51.106;7.164;2023-02-08T09:39:17;6.70;1.00
21193;DHT22;10754;51.106;7.164;2023-02-08T09:44:57;7.20;99.90
21193;DHT22;10754;51.106;7.164;2023-02-08T09:47:36;7.30;99.90
21193;DHT22;10754;51.106;7.164;2023-02-08T09:50:19;7.80;99.90
21193;DHT22;10754;51.106;7.164;2023-02-08T09:53:50;7.70;99.90
21193;DHT22;10754;51.106;7.164;2023-02-08T09:55:59;7.80;99.90
21193;DHT22;10754;51.106;7.164;2023-02-08T09:58:35;7.80;99.90
21193;DHT22;10754;51.106;7.164;2023-02-08T10:01:02;8.00;99.90
21193;DHT22;10754;51.106;7.164;2023-02-08T10:03:40;8.30;99.90
21193;DHT22;10754;51.106;7.164;2023-02-08T10:06:11;8.50;99.90
21193;DHT22;10754;51.106;7.164;2023-02-08T10:08:38;8.80;99.90
21193;DHT22;10754;51.106;7.164;2023-02-08T10:11:22;8.80;99.90
21193;DHT22;10754;51.106;7.164;2023-02-08T10:13:56;8.90;99.90
21193;DHT22;10754;51.106;7.164;2023-02-08T10:16:40;9.10;99.90
21193;DHT22;10754;51.106;7.164;2023-02-08T10:22:44;9.60;99.90
21193;DHT22;10754;51.106;7.164;2023-02-08T10:25:33;9.80;99.90
21193;DHT22;10754;51.106;7.164;2023-02-08T10:28:20;9.90;99.90
21193;DHT22;10754;51.106;7.164;2023-02-08T10:30:59;9.90;99.90
21193;DHT22;10754;51.106;7.164;2023-02-08T10:33:37;9.90;99.90
21193;DHT22;10754;51.106;7.164;2023-02-08T10:36:15;10.30;99.90
21193;DHT22;10754;51.106;7.164;2023-02-08T10:38:41;10.40;99.90
21193;DHT22;10754;51.106;7.164;2023-02-08T10:41:09;10.70;99.90
21193;DHT22;10754;51.106;7.164;2023-02-08T10:43:43;10.80;99.90
21193;DHT22;10754;51.106;7.164;2023-02-08T10:46:24;10.90;99.90
21193;DHT22;10754;51.106;7.164;2023-02-08T10:51:20;11.40;99.90
21193;DHT22;10754;51.106;7.164;2023-02-08T10:53:47;11.70;99.90
21193;DHT22;10754;51.106;7.164;2023-02-08T10:59:08;12.50;99.90
21193;DHT22;10754;51.106;7.164;2023-02-08T11:01:37;12.80;99.90
21193;DHT22;10754;51.106;7.164;2023-02-08T11:04:09;13.10;99.90
21193;DHT22;10754;51.106;7.164;2023-02-08T11:06:36;13.30;99.90
21193;DHT22;10754;51.106;7.164;2023-02-08T11:09:03;13.70;99.90
21193;DHT22;10754;51.106;7.164;2023-02-08T11:11:37;13.90;99.90
21193;DHT22;10754;51.106;7.164;2023-02-08T11:14:09;14.30;99.90
21193;DHT22;10754;51.106;7.164;2023-02-08T11:16:39;14.80;99.90
21193;DHT22;10754;51.106;7.164;2023-02-08T11:19:06;15.20;99.90
21193;DHT22;10754;51.106;7.164;2023-02-08T11:21:41;15.60;99.90
21193;DHT22;10754;51.106;7.164;2023-02-08T11:24:32;16.20;99.90
21193;DHT22;10754;51.106;7.164;2023-02-08T11:27:36;16.70;99.90
21193;DHT22;10754;51.106;7.164;2023-02-08T11:32:39;18.00;99.90
21193;DHT22;10754;51.106;7.164;2023-02-08T11:35:19;18.20;99.90
21193;DHT22;10754;51.106;7.164;2023-02-08T11:37:47;18.50;99.90
21193;DHT22;10754;51.106;7.164;2023-02-08T11:40:36;18.80;99.90
21193;DHT22;10754;51.106;7.164;2023-02-08T11:43:23;19.10;99.90
21193;DHT22;10754;51.106;7.164;2023-02-08T11:45:50;19.50;99.90
21193;DHT22;10754;51.106;7.164;2023-02-08T11:48:33;19.80;99.90
21193;DHT22;10754;51.106;7.164;2023-02-08T11:51:02;20.00;99.90
21193;DHT22;10754;51.106;7.164;2023-02-08T11:53:36;20.30;99.90
21193;DHT22;10754;51.106;7.164;2023-02-08T11:56:19;20.80;99.90
21193;DHT22;10754;51.106;7.164;2023-02-08T11:59:04;21.70;99.90
21193;DHT22;10754;51.106;7.164;2023-02-08T12:01:39;22.00;99.90
21193;DHT22;10754;51.106;7.164;2023-02-08T12:04:07;21.80;99.90
21193;DHT22;10754;51.106;7.164;2023-02-08T12:09:55;22.10;79.80
21193;DHT22;10754;51.106;7.164;2023-02-08T12:20:44;21.80;68.70
21193;DHT22;10754;51.106;7.164;2023-02-08T12:23:26;21.80;82.40
21193;DHT22;10754;51.106;7.164;2023-02-08T12:26:13;22.30;86.90
21193;DHT22;10754;51.106;7.164;2023-02-08T12:28:51;22.60;72.50
21193;DHT22;10754;51.106;7.164;2023-02-08T12:32:00;23.80;99.90
21193;DHT22;10754;51.106;7.164;2023-02-08T12:37:12;23.60;69.90
21193;DHT22;10754;51.106;7.164;2023-02-08T12:40:17;23.60;70.40
21193;DHT22;10754;51.106;7.164;2023-02-08T12:43:15;23.00;48.80
21193;DHT22;10754;51.106;7.164;2023-02-08T12:51:06;22.90;41.50
21193;DHT22;10754;51.106;7.164;2023-02-08T12:53:38;22.40;74.30
21193;DHT22;10754;51.106;7.164;2023-02-08T12:56:17;22.20;88.10
21193;DHT22;10754;51.106;7.164;2023-02-08T12:58:47;22.40;99.90
21193;DHT22;10754;51.106;7.164;2023-02-08T13:01:24;22.60;99.90
21193;DHT22;10754;51.106;7.164;2023-02-08T13:03:58;22.80;99.90
21193;DHT22;10754;51.106;7.164;2023-02-08T13:06:29;21.90;89.80
21193;DHT22;10754;51.106;7.164;2023-02-08T13:09:04;22.20;99.90
21193;DHT22;10754;51.106;7.164;2023-02-08T13:11:46;21.20;99.90
21193;DHT22;10754;51.106;7.164;2023-02-08T13:16:49;19.90;99.90
21193;DHT22;10754;51.106;7.164;2023-02-08T13:22:15;18.90;99.90
21193;DHT22;10754;51.106;7.164;2023-02-08T13:24:43;18.20;99.90
21193;DHT22;10754;51.106;7.164;2023-02-08T13:27:17;18.30;99.90
21193;DHT22;10754;51.106;7.164;2023-02-08T13:29:45;17.50;99.90
21193;DHT22;10754;51.106;7.164;2023-02-08T13:32:20;17.20;99.90
21193;DHT22;10754;51.106;7.164;2023-02-08T13:34:52;17.40;99.90
21193;DHT22;10754;51.106;7.164;2023-02-08T13:37:23;17.00;99.90
21193;DHT22;10754;51.106;7.164;2023-02-08T13:39:56;16.60;99.90
21193;DHT22;10754;51.106;7.164;2023-02-08T13:42:46;16.50;99.90
21193;DHT22;10754;51.106;7.164;2023-02-08T13:45:30;16.30;99.90
21193;DHT22;10754;51.106;7.164;2023-02-08T13:48:01;16.00;99.90
21193;DHT22;10754;51.106;7.164;2023-02-08T13:50:51;15.80;99.90
21193;DHT22;10754;51.106;7.164;2023-02-08T13:56:03;15.20;99.90
21193;DHT22;10754;51.106;7.164;2023-02-08T14:01:22;14.80;99.90
21193;DHT22;10754;51.106;7.164;2023-02-08T14:06:48;14.60;99.90
21193;DHT22;10754;51.106;7.164;2023-02-08T14:12:08;14.10;99.90
21193;DHT22;10754;51.106;7.164;2023-02-08T14:14:37;13.90;99.90
21193;DHT22;10754;51.106;7.164;2023-02-08T14:19:33;13.20;99.90
21193;DHT22;10754;51.106;7.164;2023-02-08T14:22:06;13.00;99.90
21193;DHT22;10754;51.106;7.164;2023-02-08T14:24:42;13.30;99.90
21193;DHT22;10754;51.106;7.164;2023-02-08T14:29:59;13.70;99.90
21193;DHT22;10754;51.106;7.164;2023-02-08T14:32:28;13.50;99.90
21193;DHT22;10754;51.106;7.164;2023-02-08T14:35:07;13.30;99.90
21193;DHT22;10754;51.106;7.164;2023-02-08T14:37:35;13.10;99.90
21193;DHT22;10754;51.106;7.164;2023-02-08T14:42:57;12.70;99.90
21193;DHT22;10754;51.106;7.164;2023-02-08T14:45:33;12.40;99.90
21193;DHT22;10754;51.106;7.164;2023-02-08T14:48:18;12.70;99.90
21193;DHT22;10754;51.106;7.164;2023-02-08T14:53:20;12.70;99.90
21193;DHT22;10754;51.106;7.164;2023-02-08T14:58:39;12.30;99.90
21193;DHT22;10754;51.106;7.164;2023-02-08T15:01:11;12.00;99.90
21193;DHT22;10754;51.106;7.164;2023-02-08T15:03:39;12.00;99.90
21193;DHT22;10754;51.106;7.164;2023-02-08T15:08:47;11.70;99.90
21193;DHT22;10754;51.106;7.164;2023-02-08T15:11:22;11.40;99.90
21193;DHT22;10754;51.106;7.164;2023-02-08T15:13:50;11.80;99.90
21193;DHT22;10754;51.106;7.164;2023-02-08T15:16:16;11.90;99.90
21193;DHT22;10754;51.106;7.164;2023-02-08T15:18:45;11.90;99.90
21193;DHT22;10754;51.106;7.164;2023-02-08T15:21:17;12.00;99.90
21193;DHT22;10754;51.106;7.164;2023-02-08T15:24:00;11.90;99.90
21193;DHT22;10754;51.106;7.164;2023-02-08T15:26:26;11.80;99.90
21193;DHT22;10754;51.106;7.164;2023-02-08T15:28:51;11.70;99.90
21193;DHT22;10754;51.106;7.164;2023-02-08T15:31:19;11.50;99.90
21193;DHT22;10754;51.106;7.164;2023-02-08T15:33:46;11.40;99.90
21193;DHT22;10754;51.106;7.164;2023-02-08T15:36:31;11.30;99.90
21193;DHT22;10754;51.106;7.164;2023-02-08T15:39:07;11.30;99.90
21193;DHT22;10754;51.106;7.164;2023-02-08T15:41:33;11.20;99.90
21193;DHT22;10754;51.106;7.164;2023-02-08T15:44:19;11.10;99.90
21193;DHT22;10754;51.106;7.164;2023-02-08T15:46:45;10.90;99.90
21193;DHT22;10754;51.106;7.164;2023-02-08T15:49:25;10.60;99.90
21193;DHT22;10754;51.106;7.164;2023-02-08T15:51:53;10.50;99.90
21193;DHT22;10754;51.106;7.164;2023-02-08T15:54:22;10.50;99.90
21193;DHT22;10754;51.106;7.164;2023-02-08T15:57:16;10.60;99.90
21193;DHT22;10754;51.106;7.164;2023-02-08T15:59:44;10.90;99.90
21193;DHT22;10754;51.106;7.164;2023-02-08T16:02:32;10.80;99.90
21193;DHT22;10754;51.106;7.164;2023-02-08T16:04:59;10.90;99.90
21193;DHT22;10754;51.106;7.164;2023-02-08T16:07:37;10.60;99.90
21193;DHT22;10754;51.106;7.164;2023-02-08T16:10:05;10.50;99.90
21193;DHT22;10754;51.106;7.164;2023-02-08T16:12:32;10.60;99.90
21193;DHT22;10754;51.106;7.164;2023-02-08T16:14:58;10.60;99.90
21193;DHT22;10754;51.106;7.164;2023-02-08T16:17:40;10.50;99.90
21193;DHT22;10754;51.106;7.164;2023-02-08T16:20:27;10.50;99.90
21193;DHT22;10754;51.106;7.164;2023-02-08T16:22:56;10.60;99.90
21193;DHT22;10754;51.106;7.164;2023-02-08T16:25:43;10.30;99.90
21193;DHT22;10754;51.106;7.164;2023-02-08T16:28:27;10.30;99.90
21193;DHT22;10754;51.106;7.164;2023-02-08T16:30:55;10.00;99.90
21193;DHT22;10754;51.106;7.164;2023-02-08T16:33:22;9.90;99.90
21193;DHT22;10754;51.106;7.164;2023-02-08T16:35:48;10.00;99.90
21193;DHT22;10754;51.106;7.164;2023-02-08T16:38:20;9.90;99.90
21193;DHT22;10754;51.106;7.164;2023-02-08T16:40:54;9.80;99.90
21193;DHT22;10754;51.106;7.164;2023-02-08T16:43:24;9.60;99.90
21193;DHT22;10754;51.106;7.164;2023-02-08T16:48:40;9.30;99.90
21193;DHT22;10754;51.106;7.164;2023-02-08T16:51:10;9.20;99.90
21193;DHT22;10754;51.106;7.164;2023-02-08T16:53:36;9.10;99.90
21193;DHT22;10754;51.106;7.164;2023-02-08T16:56:02;9.10;99.90
21193;DHT22;10754;51.106;7.164;2023-02-08T16:58:27;9.00;99.90
21193;DHT22;10754;51.106;7.164;2023-02-08T17:00:53;9.10;99.90
21193;DHT22;10754;51.106;7.164;2023-02-08T17:03:19;9.20;99.90
21193;DHT22;10754;51.106;7.164;2023-02-08T17:05:46;9.30;99.90
21193;DHT22;10754;51.106;7.164;2023-02-08T17:08:15;9.20;99.90
21193;DHT22;10754;51.106;7.164;2023-02-08T17:10:42;9.10;99.90
21193;DHT22;10754;51.106;7.164;2023-02-08T17:13:08;8.90;99.90
21193;DHT22;10754;51.106;7.164;2023-02-08T17:15:34;8.80;99.90
21193;DHT22;10754;51.106;7.164;2023-02-08T17:17:59;8.80;99.90
21193;DHT22;10754;51.106;7.164;2023-02-08T17:20:30;8.70;99.90
21193;DHT22;10754;51.106;7.164;2023-02-08T17:22:58;8.70;99.90
21193;DHT22;10754;51.106;7.164;2023-02-08T17:25:24;8.70;99.90
21193;DHT22;10754;51.106;7.164;2023-02-08T17:27:52;8.70;99.90
21193;DHT22;10754;51.106;7.164;2023-02-08T17:30:28;8.60;99.90
21193;DHT22;10754;51.106;7.164;2023-02-08T17:32:54;8.50;99.90
21193;DHT22;10754;51.106;7.164;2023-02-08T17:35:22;8.50;99.90
21193;DHT22;10754;51.106;7.164;2023-02-08T17:37:48;8.50;99.90
21193;DHT22;10754;51.106;7.164;2023-02-08T17:40:16;8.40;99.90
21193;DHT22;10754;51.106;7.164;2023-02-08T17:42:41;8.30;99.90
21193;DHT22;10754;51.106;7.164;2023-02-08T17:45:08;8.20;99.90
21193;DHT22;10754;51.106;7.164;2023-02-08T17:47:33;8.20;99.90